createdAt,value
2023-04-07T00:00:56.073Z,89.66
2023-04-07T00:03:23.830Z,89.56
2023-04-07T00:05:51.183Z,89.42
2023-04-07T00:08:18.552Z,89.07
2023-04-07T00:10:45.840Z,89.12
2023-04-07T00:13:13.089Z,88.88
2023-04-07T00:15:40.453Z,88.74
2023-04-07T00:18:07.822Z,89.07
2023-04-07T00:20:35.140Z,89.41
2023-04-07T00:23:02.437Z,88.54
2023-04-07T00:25:29.684Z,87.98
2023-04-07T00:27:56.907Z,88.46
2023-04-07T00:30:24.337Z,88.07
2023-04-07T00:32:51.845Z,88.23
2023-04-07T00:35:19.199Z,88.37
2023-04-07T00:37:46.452Z,88.05
2023-04-07T00:40:13.764Z,88.35
2023-04-07T00:42:41.338Z,87.78
2023-04-07T00:45:10.592Z,88.41
2023-04-07T00:47:38.948Z,87.66
2023-04-07T00:50:06.694Z,87.84
2023-04-07T00:52:33.923Z,88.42
2023-04-07T00:55:01.991Z,88.28
2023-04-07T00:57:29.241Z,88.07
2023-04-07T00:59:56.535Z,88.11
2023-04-07T01:02:44.039Z,88.08
2023-04-07T01:05:17.104Z,87.91
2023-04-07T01:08:02.379Z,87.61
2023-04-07T01:10:51.671Z,87.91
2023-04-07T01:13:26.209Z,87.90
2023-04-07T01:15:59.535Z,88.24
2023-04-07T01:18:32.265Z,88.58
2023-04-07T01:21:05.115Z,88.25
2023-04-07T01:24:06.800Z,88.51
2023-04-07T01:26:34.102Z,88.60
2023-04-07T01:29:37.335Z,88.46
2023-04-07T01:32:06.244Z,88.07
2023-04-07T01:34:33.677Z,88.61
2023-04-07T01:37:01.988Z,88.40
2023-04-07T01:39:29.381Z,88.11
2023-04-07T01:41:57.094Z,88.71
2023-04-07T01:44:24.428Z,88.76
2023-04-07T01:46:51.882Z,89.28
2023-04-07T01:49:19.141Z,89.28
2023-04-07T01:51:52.371Z,88.94
2023-04-07T01:54:19.691Z,88.99
2023-04-07T01:56:46.974Z,88.86
2023-04-07T01:59:14.252Z,88.43
2023-04-07T02:01:42.743Z,89.03
2023-04-07T02:04:26.264Z,88.48
2023-04-07T02:06:56.486Z,88.36
2023-04-07T02:09:33.103Z,88.47
2023-04-07T02:12:00.979Z,88.27
2023-04-07T02:14:32.410Z,89.13
2023-04-07T02:17:04.267Z,88.42
2023-04-07T02:19:34.734Z,88.68
2023-04-07T02:22:05.596Z,88.60
2023-04-07T02:24:32.923Z,88.28
2023-04-07T02:27:02.167Z,87.76
2023-04-07T02:29:29.654Z,87.90
2023-04-07T02:31:56.994Z,87.93
2023-04-07T02:34:24.337Z,88.27
2023-04-07T02:36:51.672Z,88.27
2023-04-07T02:39:18.961Z,87.47
2023-04-07T02:41:46.307Z,88.40
2023-04-07T02:44:13.565Z,88.79
2023-04-07T02:46:41.441Z,89.14
2023-04-07T02:49:08.750Z,88.60
2023-04-07T02:51:35.986Z,88.84
2023-04-07T02:54:03.300Z,88.73
2023-04-07T02:56:31.450Z,89.54
2023-04-07T02:58:58.822Z,89.05
2023-04-07T03:01:26.506Z,88.12
2023-04-07T03:03:54.130Z,88.09
2023-04-07T03:06:24.625Z,88.71
2023-04-07T03:09:09.587Z,87.84
2023-04-07T03:11:37.509Z,88.55
2023-04-07T03:14:04.872Z,88.74
2023-04-07T03:16:33.532Z,89.07
2023-04-07T03:19:08.984Z,89.68
2023-04-07T03:21:40.502Z,89.68
2023-04-07T03:24:08.161Z,88.97
2023-04-07T03:26:35.528Z,89.14
2023-04-07T03:29:04.402Z,89.50
2023-04-07T03:31:32.195Z,89.27
2023-04-07T03:33:59.576Z,89.52
2023-04-07T03:36:28.242Z,89.38
2023-04-07T03:38:58.131Z,89.81
2023-04-07T03:41:25.560Z,89.31
2023-04-07T03:43:52.924Z,88.93
2023-04-07T03:46:21.511Z,89.60
2023-04-07T03:48:48.845Z,89.02
2023-04-07T03:51:16.304Z,89.83
2023-04-07T03:53:45.779Z,89.71
2023-04-07T03:56:25.407Z,89.15
2023-04-07T03:58:53.744Z,89.14
2023-04-07T04:01:31.449Z,89.48
2023-04-07T04:04:05.525Z,89.30
2023-04-07T04:06:32.983Z,88.35
2023-04-07T04:09:29.808Z,88.16
2023-04-07T04:11:57.150Z,87.91
2023-04-07T04:14:25.017Z,88.00
2023-04-07T04:16:57.279Z,87.05
2023-04-07T04:19:32.009Z,88.31
2023-04-07T04:22:03.654Z,88.53
2023-04-07T04:24:35.819Z,87.53
2023-04-07T04:27:04.714Z,87.32
2023-04-07T04:29:33.430Z,87.77
2023-04-07T04:32:02.935Z,88.48
2023-04-07T04:34:31.023Z,89.14
2023-04-07T04:36:59.541Z,88.94
2023-04-07T04:39:27.101Z,89.41
2023-04-07T04:41:54.489Z,88.84
2023-04-07T04:44:25.400Z,89.29
2023-04-07T04:46:53.039Z,89.07
2023-04-07T04:49:20.489Z,89.01
2023-04-07T04:51:50.010Z,88.64
2023-04-07T04:54:19.248Z,89.11
2023-04-07T04:56:46.519Z,88.66
2023-04-07T04:59:13.938Z,89.15
2023-04-07T05:01:58.969Z,88.69
2023-04-07T05:04:28.436Z,89.14
2023-04-07T05:07:03.590Z,87.97
2023-04-07T05:09:32.579Z,87.98
2023-04-07T05:11:59.945Z,88.22
2023-04-07T05:14:29.521Z,88.53
2023-04-07T05:17:04.328Z,88.56
2023-04-07T05:19:32.540Z,88.11
2023-04-07T05:22:05.600Z,88.01
2023-04-07T05:24:41.181Z,87.43
2023-04-07T05:27:08.485Z,87.62
2023-04-07T05:29:36.633Z,87.66
2023-04-07T05:32:05.950Z,87.86
2023-04-07T05:34:33.638Z,88.78
2023-04-07T05:37:01.042Z,88.53
2023-04-07T05:39:28.878Z,87.82
2023-04-07T05:41:58.191Z,87.78
2023-04-07T05:44:27.708Z,87.29
2023-04-07T05:46:56.070Z,86.57
2023-04-07T05:49:25.262Z,86.43
2023-04-07T05:52:01.204Z,85.55
2023-04-07T05:54:28.638Z,86.80
2023-04-07T05:56:57.846Z,86.94
2023-04-07T05:59:25.192Z,86.97
2023-04-07T06:01:53.189Z,86.73
2023-04-07T06:04:21.200Z,87.05
2023-04-07T06:06:50.751Z,86.47
2023-04-07T06:09:19.231Z,86.26
2023-04-07T06:11:47.215Z,85.47
2023-04-07T06:14:17.647Z,86.40
2023-04-07T06:16:44.960Z,85.72
2023-04-07T06:19:12.390Z,85.87
2023-04-07T06:21:40.091Z,85.53
2023-04-07T06:24:07.644Z,86.15
2023-04-07T06:26:36.329Z,86.39
2023-04-07T06:29:03.689Z,86.13
2023-04-07T06:31:31.483Z,86.83
2023-04-07T06:33:58.824Z,85.36
2023-04-07T06:36:27.744Z,85.60
2023-04-07T06:38:55.656Z,86.92
2023-04-07T06:41:22.904Z,86.98
2023-04-07T06:43:51.501Z,86.18
2023-04-07T06:46:19.111Z,85.82
2023-04-07T06:48:46.441Z,85.40
2023-04-07T06:51:13.698Z,84.36
2023-04-07T06:53:42.043Z,85.18
2023-04-07T06:56:10.749Z,85.22
2023-04-07T06:58:38.185Z,84.43
2023-04-07T07:01:06.187Z,85.02
2023-04-07T07:03:33.585Z,84.78
2023-04-07T07:06:01.255Z,83.99
2023-04-07T07:08:29.143Z,83.23
2023-04-07T07:10:56.494Z,83.69
2023-04-07T07:13:24.933Z,83.19
2023-04-07T07:15:52.587Z,82.26
2023-04-07T07:18:20.123Z,82.41
2023-04-07T07:20:47.350Z,82.91
2023-04-07T07:23:14.681Z,83.22
2023-04-07T07:25:42.091Z,81.86
2023-04-07T07:28:09.824Z,81.25
2023-04-07T07:30:39.384Z,81.39
2023-04-07T07:33:06.801Z,81.29
2023-04-07T07:35:34.442Z,80.93
2023-04-07T07:38:01.752Z,81.52
2023-04-07T07:40:29.025Z,81.87
2023-04-07T07:42:56.726Z,82.06
2023-04-07T07:45:24.100Z,82.63
2023-04-07T07:47:51.358Z,82.81
2023-04-07T07:50:18.733Z,82.59
2023-04-07T07:52:46.302Z,82.00
2023-04-07T07:55:13.542Z,82.81
2023-04-07T07:57:40.805Z,80.95
2023-04-07T08:00:08.581Z,80.70
2023-04-07T08:02:41.994Z,80.59
2023-04-07T08:05:09.631Z,80.08
2023-04-07T08:07:37.766Z,79.89
2023-04-07T08:10:05.729Z,79.89
2023-04-07T08:12:32.946Z,79.79
2023-04-07T08:15:00.413Z,80.81
2023-04-07T08:17:27.698Z,81.01
2023-04-07T08:19:54.961Z,81.10
2023-04-07T08:22:25.267Z,81.08
2023-04-07T08:24:52.522Z,82.24
2023-04-07T08:27:20.902Z,81.17
2023-04-07T08:30:01.074Z,80.93
2023-04-07T08:32:35.696Z,79.96
2023-04-07T08:35:03.131Z,79.91
2023-04-07T08:37:31.468Z,79.39
2023-04-07T08:39:58.737Z,78.94
2023-04-07T08:42:28.478Z,80.11
2023-04-07T08:45:05.854Z,81.43
2023-04-07T08:47:34.178Z,78.68
2023-04-07T08:50:08.939Z,79.50
2023-04-07T08:52:46.634Z,79.52
2023-04-07T08:55:13.926Z,79.08
2023-04-07T08:57:44.103Z,78.75
2023-04-07T09:00:11.983Z,79.19
2023-04-07T09:02:41.139Z,77.69
2023-04-07T09:05:09.095Z,77.81
2023-04-07T09:07:37.537Z,77.39
2023-04-07T09:10:05.516Z,78.91
2023-04-07T09:12:32.988Z,79.06
2023-04-07T09:15:00.492Z,77.86
2023-04-07T09:17:28.454Z,75.75
2023-04-07T09:19:59.292Z,76.37
2023-04-07T09:22:43.179Z,76.33
2023-04-07T09:25:22.923Z,76.60
2023-04-07T09:28:00.731Z,76.33
2023-04-07T09:30:29.143Z,75.93
2023-04-07T09:32:56.793Z,74.45
2023-04-07T09:35:24.853Z,73.48
2023-04-07T09:38:10.662Z,74.90
2023-04-07T09:40:38.635Z,77.32
2023-04-07T09:43:06.081Z,76.07
2023-04-07T09:45:36.552Z,74.85
2023-04-07T09:48:08.794Z,73.82
2023-04-07T09:50:39.157Z,72.37
2023-04-07T09:53:07.141Z,73.85
2023-04-07T09:55:35.048Z,74.64
2023-04-07T09:58:02.531Z,74.58
2023-04-07T10:00:29.831Z,73.71
2023-04-07T10:02:57.951Z,74.41
2023-04-07T10:05:25.560Z,71.61
2023-04-07T10:07:52.899Z,72.67
2023-04-07T10:10:20.404Z,72.83
2023-04-07T10:12:47.690Z,73.28
2023-04-07T10:15:16.046Z,73.04
2023-04-07T10:17:48.423Z,73.69
2023-04-07T10:20:20.957Z,74.36
2023-04-07T10:22:49.396Z,74.59
2023-04-07T10:25:18.539Z,73.90
2023-04-07T10:27:51.314Z,75.03
2023-04-07T10:30:22.456Z,74.53
2023-04-07T10:32:50.621Z,75.62
2023-04-07T10:35:18.034Z,74.24
2023-04-07T10:38:07.125Z,74.62
2023-04-07T10:40:35.577Z,75.19
2023-04-07T10:43:03.061Z,75.04
2023-04-07T10:45:48.944Z,75.36
2023-04-07T10:48:17.255Z,76.38
2023-04-07T10:51:08.393Z,75.60
2023-04-07T10:53:36.273Z,76.14
2023-04-07T10:56:03.599Z,76.30
2023-04-07T10:58:33.915Z,76.42
2023-04-07T11:01:01.354Z,75.11
2023-04-07T11:03:29.600Z,74.80
2023-04-07T11:06:10.673Z,74.97
2023-04-07T11:08:39.576Z,74.03
2023-04-07T11:11:09.419Z,73.52
2023-04-07T11:13:46.861Z,74.50
2023-04-07T11:16:17.977Z,76.14
2023-04-07T11:18:46.432Z,76.29
2023-04-07T11:21:19.377Z,77.01
2023-04-07T11:23:47.965Z,76.11
2023-04-07T11:26:16.121Z,75.88
2023-04-07T11:28:46.918Z,76.40
2023-04-07T11:31:23.043Z,76.82
2023-04-07T11:34:00.339Z,77.66
2023-04-07T11:36:38.874Z,76.46
2023-04-07T11:39:06.145Z,75.92
2023-04-07T11:41:33.688Z,75.93
2023-04-07T11:44:08.294Z,75.70
2023-04-07T11:46:36.333Z,74.01
2023-04-07T11:49:11.115Z,74.93
2023-04-07T11:51:38.528Z,74.98
2023-04-07T11:54:05.924Z,74.91
2023-04-07T11:56:48.094Z,75.00
2023-04-07T11:59:23.258Z,73.86
2023-04-07T12:01:51.319Z,74.59
2023-04-07T12:04:19.290Z,74.24
2023-04-07T12:06:47.660Z,74.66
2023-04-07T12:09:29.328Z,74.01
2023-04-07T12:11:57.916Z,74.03
2023-04-07T12:14:26.358Z,74.11
2023-04-07T12:16:56.532Z,73.34
2023-04-07T12:19:25.617Z,72.47
2023-04-07T12:21:52.891Z,72.96
2023-04-07T12:24:20.214Z,71.96
2023-04-07T12:26:48.086Z,72.80
2023-04-07T12:29:16.374Z,73.18
2023-04-07T12:31:43.938Z,75.21
2023-04-07T12:34:11.487Z,73.67
2023-04-07T12:36:38.973Z,74.04
2023-04-07T12:39:06.463Z,74.11
2023-04-07T12:41:33.758Z,75.30
2023-04-07T12:44:01.037Z,75.49
2023-04-07T12:46:28.417Z,76.71
2023-04-07T12:48:56.224Z,76.72
2023-04-07T12:51:23.688Z,76.50
2023-04-07T12:53:51.192Z,75.32
2023-04-07T12:56:18.540Z,75.18
2023-04-07T12:58:46.049Z,75.17
2023-04-07T13:01:13.501Z,75.13
2023-04-07T13:03:41.278Z,74.63
2023-04-07T13:06:08.592Z,75.04
2023-04-07T13:08:36.006Z,75.88
2023-04-07T13:11:03.434Z,74.84
2023-04-07T13:13:31.406Z,74.90
2023-04-07T13:15:58.770Z,73.87
2023-04-07T13:18:26.169Z,73.87
2023-04-07T13:21:13.158Z,75.25
2023-04-07T13:23:43.699Z,75.67
2023-04-07T13:26:11.711Z,75.64
2023-04-07T13:28:39.168Z,74.90
2023-04-07T13:31:06.576Z,75.71
2023-04-07T13:33:34.827Z,74.30
2023-04-07T13:36:02.166Z,74.88
2023-04-07T13:38:29.522Z,76.37
2023-04-07T13:40:56.880Z,76.88
2023-04-07T13:43:24.193Z,76.91
2023-04-07T13:45:51.755Z,77.14
2023-04-07T13:48:19.125Z,77.38
2023-04-07T13:50:46.408Z,77.27
2023-04-07T13:53:13.669Z,77.24
2023-04-07T13:55:41.192Z,75.47
2023-04-07T13:58:08.539Z,74.95
2023-04-07T14:00:38.356Z,75.43
2023-04-07T14:03:05.829Z,76.86
2023-04-07T14:05:33.286Z,75.11
2023-04-07T14:08:00.576Z,75.96
2023-04-07T14:10:27.895Z,74.95
2023-04-07T14:12:55.120Z,74.83
2023-04-07T14:15:22.420Z,75.09
2023-04-07T14:17:49.778Z,75.57
2023-04-07T14:20:17.171Z,76.17
2023-04-07T14:22:44.630Z,75.98
2023-04-07T14:25:12.272Z,76.94
2023-04-07T14:27:39.645Z,76.79
2023-04-07T14:30:07.536Z,78.00
2023-04-07T14:32:36.010Z,76.79
2023-04-07T14:35:03.335Z,76.47
2023-04-07T14:37:30.688Z,77.76
2023-04-07T14:42:29.798Z,77.62
2023-04-07T14:44:57.154Z,77.57
2023-04-07T14:47:24.506Z,77.44
2023-04-07T14:49:53.541Z,78.05
2023-04-07T14:52:22.080Z,75.62
2023-04-07T14:54:49.491Z,76.41
2023-04-07T14:57:17.169Z,75.89
2023-04-07T14:59:44.623Z,75.74
2023-04-07T15:02:12.025Z,76.84
2023-04-07T15:04:39.634Z,77.03
2023-04-07T15:07:07.014Z,77.06
2023-04-07T15:09:34.388Z,77.38
2023-04-07T15:12:02.255Z,78.07
2023-04-07T15:14:29.615Z,77.33
2023-04-07T15:16:56.893Z,77.86
2023-04-07T15:19:24.114Z,77.58
2023-04-07T15:21:51.381Z,77.63
2023-04-07T15:24:19.700Z,77.41
2023-04-07T15:26:47.017Z,76.81
2023-04-07T15:29:14.305Z,77.10
2023-04-07T15:31:41.583Z,77.00
2023-04-07T15:34:08.840Z,76.45
2023-04-07T15:36:36.085Z,76.32
2023-04-07T15:39:04.521Z,77.29
2023-04-07T15:41:31.885Z,78.46
2023-04-07T15:44:01.491Z,78.82
2023-04-07T15:46:28.979Z,78.93
2023-04-07T15:48:56.304Z,78.96
2023-04-07T15:51:23.664Z,79.12
2023-04-07T15:53:51.105Z,78.97
2023-04-07T15:56:18.653Z,79.34
2023-04-07T15:58:46.057Z,78.97
2023-04-07T16:01:13.412Z,78.30
2023-04-07T16:03:40.957Z,78.96
2023-04-07T16:06:08.346Z,78.81
2023-04-07T16:08:35.685Z,78.03
2023-04-07T16:11:02.968Z,78.03
2023-04-07T16:13:30.307Z,77.70
2023-04-07T16:15:57.757Z,77.69
2023-04-07T16:18:25.042Z,78.51
2023-04-07T16:20:52.254Z,78.86
2023-04-07T16:23:19.567Z,79.83
2023-04-07T16:25:46.839Z,80.58
2023-04-07T16:28:14.095Z,81.22
2023-04-07T16:30:41.446Z,81.84
2023-04-07T16:33:08.789Z,81.88
2023-04-07T16:35:36.393Z,82.60
2023-04-07T16:38:06.019Z,82.43
2023-04-07T16:40:33.503Z,82.79
2023-04-07T16:43:00.846Z,83.19
2023-04-07T16:45:28.128Z,83.54
2023-04-07T16:47:55.522Z,84.32
2023-04-07T16:50:22.949Z,83.43
2023-04-07T16:52:50.294Z,83.66
2023-04-07T16:55:17.658Z,84.07
2023-04-07T16:57:45.004Z,83.97
2023-04-07T17:00:13.061Z,83.91
2023-04-07T17:02:40.483Z,83.29
2023-04-07T17:05:08.311Z,83.53
2023-04-07T17:07:36.013Z,83.59
2023-04-07T17:10:03.788Z,83.27
2023-04-07T17:12:31.047Z,83.41
2023-04-07T17:14:58.329Z,83.50
2023-04-07T17:17:25.770Z,83.33
2023-04-07T17:19:53.889Z,83.58
2023-04-07T17:22:21.976Z,83.45
2023-04-07T17:24:49.286Z,83.89
2023-04-07T17:27:16.543Z,83.86
2023-04-07T17:29:43.821Z,83.52
2023-04-07T17:32:11.070Z,83.80
2023-04-07T17:34:38.306Z,83.75
2023-04-07T17:37:05.788Z,84.40
2023-04-07T17:39:33.051Z,84.39
2023-04-07T17:42:00.394Z,84.38
2023-04-07T17:44:27.801Z,84.67
2023-04-07T17:46:55.310Z,84.98
2023-04-07T17:49:22.721Z,84.95
2023-04-07T17:51:50.008Z,83.75
2023-04-07T17:54:17.346Z,84.90
2023-04-07T17:56:44.618Z,84.11
2023-04-07T17:59:12.045Z,84.18
2023-04-07T18:01:39.777Z,84.26
2023-04-07T18:04:07.387Z,84.43
2023-04-07T18:06:35.218Z,84.20
2023-04-07T18:09:04.637Z,84.83
2023-04-07T18:11:32.816Z,84.30
2023-04-07T18:14:00.568Z,84.46
2023-04-07T18:16:28.025Z,84.01
2023-04-07T18:18:55.424Z,84.43
2023-04-07T18:21:22.753Z,83.41
2023-04-07T18:23:50.185Z,84.20
2023-04-07T18:26:17.641Z,83.90
2023-04-07T18:28:44.910Z,83.91
2023-04-07T18:31:12.522Z,83.87
2023-04-07T18:33:39.853Z,83.61
2023-04-07T18:36:07.668Z,82.99
2023-04-07T18:38:35.958Z,84.13
2023-04-07T18:41:05.769Z,83.06
2023-04-07T18:43:33.031Z,83.67
2023-04-07T18:46:00.313Z,83.75
2023-04-07T18:48:27.761Z,83.73
2023-04-07T18:50:55.532Z,84.29
2023-04-07T18:53:23.473Z,84.31
2023-04-07T18:55:51.338Z,84.45
2023-04-07T18:58:19.394Z,84.13
2023-04-07T19:00:47.582Z,84.15
2023-04-07T19:03:14.987Z,84.42
2023-04-07T19:05:42.463Z,84.19
2023-04-07T19:08:09.840Z,84.15
2023-04-07T19:10:37.228Z,84.66
2023-04-07T19:13:04.793Z,84.57
2023-04-07T19:15:36.516Z,84.56
2023-04-07T19:18:04.113Z,85.25
2023-04-07T19:20:33.535Z,84.62
2023-04-07T19:23:01.959Z,84.88
2023-04-07T19:25:30.740Z,85.00
2023-04-07T19:27:58.248Z,85.32
2023-04-07T19:30:25.601Z,85.22
2023-04-07T19:32:53.296Z,84.54
2023-04-07T19:35:21.113Z,84.98
2023-04-07T19:37:48.526Z,84.96
2023-04-07T19:40:15.896Z,85.32
2023-04-07T19:42:43.143Z,84.25
2023-04-07T19:45:10.572Z,84.52
2023-04-07T19:47:38.487Z,85.00
2023-04-07T19:50:06.787Z,84.34
2023-04-07T19:52:34.126Z,83.84
2023-04-07T19:55:02.744Z,84.76
2023-04-07T19:57:31.263Z,84.23
2023-04-07T19:59:58.508Z,84.13
2023-04-07T20:02:26.054Z,84.65
2023-04-07T20:04:53.758Z,84.89
2023-04-07T20:07:21.912Z,84.38
2023-04-07T20:09:51.435Z,84.08
2023-04-07T20:12:18.786Z,84.57
2023-04-07T20:14:46.380Z,84.90
2023-04-07T20:17:13.592Z,84.68
2023-04-07T20:19:41.533Z,85.12
2023-04-07T20:22:08.917Z,84.56
2023-04-07T20:24:36.275Z,84.58
2023-04-07T20:27:03.610Z,85.31
2023-04-07T20:29:31.216Z,85.21
2023-04-07T20:31:58.501Z,85.21
2023-04-07T20:34:25.911Z,84.30
2023-04-07T20:36:53.197Z,84.45
2023-04-07T20:39:20.529Z,84.83
2023-04-07T20:41:48.019Z,84.28
2023-04-07T20:44:15.328Z,84.67
2023-04-07T20:46:44.003Z,84.56
2023-04-07T20:49:11.248Z,84.59
2023-04-07T20:51:38.519Z,85.19
2023-04-07T20:54:06.036Z,85.56
2023-04-07T20:56:33.386Z,85.39
2023-04-07T20:59:00.897Z,84.90
2023-04-07T21:01:28.407Z,84.41
2023-04-07T21:03:55.788Z,84.67
2023-04-07T21:06:23.078Z,84.07
2023-04-07T21:08:50.554Z,84.67
2023-04-07T21:11:17.920Z,84.60
2023-04-07T21:13:45.416Z,84.75
2023-04-07T21:16:12.738Z,84.32
2023-04-07T21:18:40.108Z,83.89
2023-04-07T21:21:08.267Z,84.26
2023-04-07T21:23:35.559Z,84.13
2023-04-07T21:26:05.998Z,84.48
2023-04-07T21:28:33.301Z,84.11
2023-04-07T21:31:01.381Z,84.28
2023-04-07T21:33:28.955Z,84.11
2023-04-07T21:35:56.532Z,84.56
2023-04-07T21:38:23.865Z,84.38
2023-04-07T21:40:51.331Z,84.02
2023-04-07T21:43:18.605Z,84.22
2023-04-07T21:45:47.070Z,83.83
2023-04-07T21:48:20.840Z,83.55
2023-04-07T21:50:48.180Z,84.15
2023-04-07T21:53:15.431Z,84.04
2023-04-07T21:55:42.700Z,84.54
2023-04-07T21:58:10.386Z,84.13
2023-04-07T22:00:38.540Z,82.88
2023-04-07T22:03:07.163Z,83.42
2023-04-07T22:05:34.637Z,83.97
2023-04-07T22:08:03.137Z,84.68
2023-04-07T22:10:31.043Z,84.81
2023-04-07T22:12:58.307Z,84.50
2023-04-07T22:15:25.746Z,83.87
2023-04-07T22:17:53.099Z,83.08
2023-04-07T22:20:20.463Z,83.94
2023-04-07T22:22:47.724Z,84.29
2023-04-07T22:25:15.055Z,83.22
2023-04-07T22:27:42.362Z,83.71
2023-04-07T22:30:10.942Z,84.57
2023-04-07T22:32:38.377Z,84.07
2023-04-07T22:35:05.966Z,84.27
2023-04-07T22:37:33.232Z,84.63
2023-04-07T22:40:00.555Z,84.43
2023-04-07T22:42:27.814Z,84.22
2023-04-07T22:44:55.080Z,83.39
2023-04-07T22:47:22.640Z,83.65
2023-04-07T22:49:49.981Z,83.58
2023-04-07T22:52:17.248Z,84.05
2023-04-07T22:54:44.600Z,83.32
2023-04-07T22:57:11.883Z,83.01
2023-04-07T22:59:39.106Z,83.59
2023-04-07T23:02:06.393Z,83.59
2023-04-07T23:04:33.717Z,84.27
2023-04-07T23:07:01.450Z,83.59
2023-04-07T23:09:28.692Z,83.57
2023-04-07T23:11:57.101Z,82.65
2023-04-07T23:14:24.373Z,82.41
2023-04-07T23:16:51.748Z,83.31
2023-04-07T23:19:19.123Z,83.55
2023-04-07T23:21:46.389Z,83.84
2023-04-07T23:24:13.742Z,84.14
2023-04-07T23:26:41.088Z,83.42
2023-04-07T23:29:08.413Z,83.14
2023-04-07T23:31:35.930Z,84.34
2023-04-07T23:34:04.210Z,83.52
2023-04-07T23:36:31.605Z,83.29
2023-04-07T23:38:58.923Z,84.26
2023-04-07T23:41:26.181Z,84.74
2023-04-07T23:43:53.463Z,85.51
2023-04-07T23:46:22.096Z,84.64
2023-04-07T23:48:49.911Z,85.97
2023-04-07T23:51:17.342Z,86.66
2023-04-07T23:53:44.650Z,87.14
2023-04-07T23:56:12.011Z,86.80
2023-04-07T23:58:39.302Z,86.70
